1 Hotel West Hollywood East Helipad

METAR KSMO TAF KSMO
19 °C
°C
-
°C
21m
Age
01:12:00
LT
00:12
UTC
0 ft

1,000

2,000

3,000

4,000

5,000

VFR
<?= Yii::t('app', 'Wind direction') ?> <?= Yii::t('app', 'of'); ?>
010°
17:23
Sunset
7%
Humidity
Wind shear
Closed/Snow
RWY visual range
RWY condition
Vert. visibility
Min. visibility
CAVOK
Trend
Correction
Special report
30.04 inHg
QNH
METAR KSMO 312351Z 01010G20KT 10SM CLR 19/M17 A3004 RMK AO2 PK WND 03027/2324 SLP171 T01891167 10189 20139 55004
Clear
0 kt
0 kt
16:00
VFR
10 kt
17:00
VFR
10 kt
18:00
VFR
10 kt
19:00
VFR
10 kt
20:00
VFR
10 kt
21:00
VFR
10 kt
22:00
VFR
10 kt
10 mi
Visibility
None
Ceiling
10-20 kt
Wind
metar-taf.com/US-3769

Metar-Taf.com

Visual decoder

We and third parties follow your internet behavior on our website with cookies. If you continue, we assume you agree with our cookie policy.